sensor_id;sensor_type;location;lat;lon;timestamp;pressure;altitude;pressure_sealevel;temperature;humidity
77047;BME280;65977;56.380;44.022;2023-03-13T00:03:42;99061.69;;;2.64;52.95
77047;BME280;65977;56.380;44.022;2023-03-13T00:06:09;99051.50;;;2.61;52.99
77047;BME280;65977;56.380;44.022;2023-03-13T00:08:37;99045.09;;;2.53;52.47
77047;BME280;65977;56.380;44.022;2023-03-13T00:11:05;99038.44;;;2.49;52.28
77047;BME280;65977;56.380;44.022;2023-03-13T00:13:33;99048.78;;;2.51;51.63
77047;BME280;65977;56.380;44.022;2023-03-13T00:16:11;99043.44;;;2.41;50.12
77047;BME280;65977;56.380;44.022;2023-03-13T00:18:44;99056.94;;;2.46;50.34
77047;BME280;65977;56.380;44.022;2023-03-13T00:21:12;99049.59;;;2.40;49.71
77047;BME280;65977;56.380;44.022;2023-03-13T00:23:47;99057.16;;;2.32;48.73
77047;BME280;65977;56.380;44.022;2023-03-13T00:26:16;99062.81;;;2.26;48.96
77047;BME280;65977;56.380;44.022;2023-03-13T00:28:44;99071.81;;;2.22;48.63
77047;BME280;65977;56.380;44.022;2023-03-13T00:31:20;99074.56;;;2.21;48.54
77047;BME280;65977;56.380;44.022;2023-03-13T00:33:49;99087.09;;;2.16;48.19
77047;BME280;65977;56.380;44.022;2023-03-13T00:36:26;99092.31;;;2.16;48.09
77047;BME280;65977;56.380;44.022;2023-03-13T00:38:54;99095.00;;;2.14;49.00
77047;BME280;65977;56.380;44.022;2023-03-13T00:41:24;99104.72;;;2.12;48.42
77047;BME280;65977;56.380;44.022;2023-03-13T00:43:53;99097.84;;;2.11;48.45
77047;BME280;65977;56.380;44.022;2023-03-13T00:46:23;99107.19;;;2.14;48.29
77047;BME280;65977;56.380;44.022;2023-03-13T00:48:51;99115.84;;;2.14;48.71
77047;BME280;65977;56.380;44.022;2023-03-13T00:51:19;99118.81;;;2.10;48.68
77047;BME280;65977;56.380;44.022;2023-03-13T00:53:47;99127.25;;;2.13;48.60
77047;BME280;65977;56.380;44.022;2023-03-13T00:56:16;99124.63;;;2.13;48.06
77047;BME280;65977;56.380;44.022;2023-03-13T00:58:44;99129.84;;;2.13;48.01
77047;BME280;65977;56.380;44.022;2023-03-13T01:03:44;99129.09;;;2.11;48.03
77047;BME280;65977;56.380;44.022;2023-03-13T01:06:16;99127.25;;;2.13;48.31
77047;BME280;65977;56.380;44.022;2023-03-13T01:08:43;99135.16;;;2.12;47.92
77047;BME280;65977;56.380;44.022;2023-03-13T01:11:13;99134.56;;;2.08;47.61
77047;BME280;65977;56.380;44.022;2023-03-13T01:13:41;99152.47;;;2.13;47.56
77047;BME280;65977;56.380;44.022;2023-03-13T01:16:19;99155.16;;;2.11;47.46
77047;BME280;65977;56.380;44.022;2023-03-13T01:18:50;99159.56;;;2.11;46.97
77047;BME280;65977;56.380;44.022;2023-03-13T01:21:18;99158.00;;;2.08;46.96
77047;BME280;65977;56.380;44.022;2023-03-13T01:23:47;99170.19;;;2.08;47.46
77047;BME280;65977;56.380;44.022;2023-03-13T01:26:15;99165.91;;;2.07;46.94
77047;BME280;65977;56.380;44.022;2023-03-13T01:28:42;99161.75;;;2.04;47.12
77047;BME280;65977;56.380;44.022;2023-03-13T01:31:16;99178.84;;;2.08;47.45
77047;BME280;65977;56.380;44.022;2023-03-13T01:33:45;99180.63;;;2.08;47.34
77047;BME280;65977;56.380;44.022;2023-03-13T01:36:13;99194.34;;;2.10;47.75
77047;BME280;65977;56.380;44.022;2023-03-13T01:38:40;99189.38;;;2.07;47.62
77047;BME280;65977;56.380;44.022;2023-03-13T01:41:10;99184.06;;;2.08;47.75
77047;BME280;65977;56.380;44.022;2023-03-13T01:43:38;99181.06;;;2.02;47.55
77047;BME280;65977;56.380;44.022;2023-03-13T01:46:17;99195.63;;;2.04;47.90
77047;BME280;65977;56.380;44.022;2023-03-13T01:48:52;99196.59;;;2.03;48.16
77047;BME280;65977;56.380;44.022;2023-03-13T01:51:26;99190.75;;;2.00;48.64
77047;BME280;65977;56.380;44.022;2023-03-13T01:56:36;99210.22;;;2.07;48.55
77047;BME280;65977;56.380;44.022;2023-03-13T01:59:07;99207.72;;;2.05;48.80
77047;BME280;65977;56.380;44.022;2023-03-13T02:01:36;99201.06;;;2.01;48.96
77047;BME280;65977;56.380;44.022;2023-03-13T02:04:04;99210.22;;;2.07;49.59
77047;BME280;65977;56.380;44.022;2023-03-13T02:06:35;99205.97;;;2.06;49.52
77047;BME280;65977;56.380;44.022;2023-03-13T02:09:08;99218.03;;;2.07;48.97
77047;BME280;65977;56.380;44.022;2023-03-13T02:11:54;99217.44;;;2.03;48.51
77047;BME280;65977;56.380;44.022;2023-03-13T02:14:26;99214.09;;;2.01;47.79
77047;BME280;65977;56.380;44.022;2023-03-13T02:16:54;99217.75;;;1.99;47.48
77047;BME280;65977;56.380;44.022;2023-03-13T02:19:45;99227.66;;;1.93;47.38
77047;BME280;65977;56.380;44.022;2023-03-13T02:27:23;99245.72;;;1.84;46.66
77047;BME280;65977;56.380;44.022;2023-03-13T02:29:50;99251.66;;;1.86;47.53
77047;BME280;65977;56.380;44.022;2023-03-13T02:32:17;99246.69;;;1.83;47.22
77047;BME280;65977;56.380;44.022;2023-03-13T02:34:48;99249.28;;;1.83;46.19
77047;BME280;65977;56.380;44.022;2023-03-13T02:37:17;99267.00;;;1.78;46.39
77047;BME280;65977;56.380;44.022;2023-03-13T02:39:47;99277.72;;;1.73;46.43
77047;BME280;65977;56.380;44.022;2023-03-13T02:42:18;99269.81;;;1.75;47.17
77047;BME280;65977;56.380;44.022;2023-03-13T02:44:46;99274.19;;;1.74;46.13
77047;BME280;65977;56.380;44.022;2023-03-13T02:47:18;99277.63;;;1.75;46.39
77047;BME280;65977;56.380;44.022;2023-03-13T02:49:45;99281.28;;;1.72;46.09
77047;BME280;65977;56.380;44.022;2023-03-13T02:54:52;99286.69;;;1.69;46.44
77047;BME280;65977;56.380;44.022;2023-03-13T02:57:20;99293.78;;;1.67;46.09
77047;BME280;65977;56.380;44.022;2023-03-13T02:59:47;99287.22;;;1.62;46.03
77047;BME280;65977;56.380;44.022;2023-03-13T03:02:14;99297.63;;;1.62;46.72
77047;BME280;65977;56.380;44.022;2023-03-13T03:04:41;99305.34;;;1.63;46.49
77047;BME280;65977;56.380;44.022;2023-03-13T03:07:08;99301.81;;;1.64;46.49
77047;BME280;65977;56.380;44.022;2023-03-13T03:09:35;99300.97;;;1.64;46.63
77047;BME280;65977;56.380;44.022;2023-03-13T03:12:03;99293.28;;;1.62;46.66
77047;BME280;65977;56.380;44.022;2023-03-13T03:14:30;99305.25;;;1.65;47.11
77047;BME280;65977;56.380;44.022;2023-03-13T03:16:57;99301.16;;;1.61;46.94
77047;BME280;65977;56.380;44.022;2023-03-13T03:19:24;99313.78;;;1.67;47.01
77047;BME280;65977;56.380;44.022;2023-03-13T03:21:51;99321.06;;;1.74;47.02
77047;BME280;65977;56.380;44.022;2023-03-13T03:24:18;99308.97;;;1.73;47.54
77047;BME280;65977;56.380;44.022;2023-03-13T03:26:45;99325.53;;;1.72;46.95
77047;BME280;65977;56.380;44.022;2023-03-13T03:29:12;99316.78;;;1.73;47.00
77047;BME280;65977;56.380;44.022;2023-03-13T03:31:39;99323.53;;;1.76;47.23
77047;BME280;65977;56.380;44.022;2023-03-13T03:34:06;99330.84;;;1.71;46.59
77047;BME280;65977;56.380;44.022;2023-03-13T03:36:34;99326.16;;;1.63;46.74
77047;BME280;65977;56.380;44.022;2023-03-13T03:39:01;99335.44;;;1.67;46.79
77047;BME280;65977;56.380;44.022;2023-03-13T03:41:28;99338.97;;;1.66;46.74
77047;BME280;65977;56.380;44.022;2023-03-13T03:43:55;99349.38;;;1.66;47.00
77047;BME280;65977;56.380;44.022;2023-03-13T03:46:22;99339.19;;;1.63;47.17
77047;BME280;65977;56.380;44.022;2023-03-13T03:48:56;99354.19;;;1.72;47.21
77047;BME280;65977;56.380;44.022;2023-03-13T03:51:23;99348.78;;;1.75;46.92
77047;BME280;65977;56.380;44.022;2023-03-13T03:53:50;99360.75;;;1.78;47.44
77047;BME280;65977;56.380;44.022;2023-03-13T03:56:17;99361.47;;;1.80;47.07
77047;BME280;65977;56.380;44.022;2023-03-13T03:58:44;99364.06;;;1.80;47.69
77047;BME280;65977;56.380;44.022;2023-03-13T04:01:11;99373.31;;;1.84;47.39
77047;BME280;65977;56.380;44.022;2023-03-13T04:03:38;99374.06;;;1.86;47.71
77047;BME280;65977;56.380;44.022;2023-03-13T04:06:06;99369.16;;;1.81;47.76
77047;BME280;65977;56.380;44.022;2023-03-13T04:08:33;99372.72;;;1.93;47.39
77047;BME280;65977;56.380;44.022;2023-03-13T04:11:00;99392.19;;;2.00;47.89
77047;BME280;65977;56.380;44.022;2023-03-13T04:13:28;99382.47;;;2.02;47.35
77047;BME280;65977;56.380;44.022;2023-03-13T04:15:55;99396.75;;;2.09;47.36
77047;BME280;65977;56.380;44.022;2023-03-13T04:18:22;99401.75;;;2.12;47.00
77047;BME280;65977;56.380;44.022;2023-03-13T04:20:49;99410.06;;;2.17;46.34
77047;BME280;65977;56.380;44.022;2023-03-13T04:23:16;99417.91;;;2.17;44.95
77047;BME280;65977;56.380;44.022;2023-03-13T04:25:43;99431.03;;;2.16;44.50
77047;BME280;65977;56.380;44.022;2023-03-13T04:28:10;99432.47;;;2.20;44.21
77047;BME280;65977;56.380;44.022;2023-03-13T04:30:37;99438.09;;;2.26;43.68
77047;BME280;65977;56.380;44.022;2023-03-13T04:33:04;99449.47;;;2.25;43.56
77047;BME280;65977;56.380;44.022;2023-03-13T04:35:31;99453.13;;;2.23;43.46
77047;BME280;65977;56.380;44.022;2023-03-13T04:37:59;99465.63;;;2.18;43.50
77047;BME280;65977;56.380;44.022;2023-03-13T04:40:27;99457.56;;;2.82;42.18
77047;BME280;65977;56.380;44.022;2023-03-13T04:42:54;99472.72;;;5.05;38.56
77047;BME280;65977;56.380;44.022;2023-03-13T04:45:21;99479.34;;;8.00;33.06
77047;BME280;65977;56.380;44.022;2023-03-13T04:47:48;99461.28;;;10.63;28.89
77047;BME280;65977;56.380;44.022;2023-03-13T04:50:15;99476.72;;;12.47;25.69
77047;BME280;65977;56.380;44.022;2023-03-13T04:52:42;99460.31;;;14.34;23.98
77047;BME280;65977;56.380;44.022;2023-03-13T04:55:09;99473.63;;;15.86;22.05
77047;BME280;65977;56.380;44.022;2023-03-13T04:57:36;99483.94;;;17.19;20.85
77047;BME280;65977;56.380;44.022;2023-03-13T05:00:05;99491.34;;;18.37;19.58
77047;BME280;65977;56.380;44.022;2023-03-13T05:02:33;99483.28;;;19.33;18.53
77047;BME280;65977;56.380;44.022;2023-03-13T05:05:00;99498.88;;;20.18;17.64
77047;BME280;65977;56.380;44.022;2023-03-13T05:07:29;99498.34;;;20.96;16.84
77047;BME280;65977;56.380;44.022;2023-03-13T05:09:55;99506.88;;;21.59;16.20
77047;BME280;65977;56.380;44.022;2023-03-13T05:12:22;99503.59;;;22.28;15.76
77047;BME280;65977;56.380;44.022;2023-03-13T05:14:49;99511.69;;;22.97;14.97
77047;BME280;65977;56.380;44.022;2023-03-13T05:17:16;99523.66;;;23.53;14.51
77047;BME280;65977;56.380;44.022;2023-03-13T05:19:43;99514.34;;;23.88;14.05
77047;BME280;65977;56.380;44.022;2023-03-13T05:22:11;99522.34;;;24.28;13.91
77047;BME280;65977;56.380;44.022;2023-03-13T05:24:37;99526.34;;;24.59;13.31
77047;BME280;65977;56.380;44.022;2023-03-13T05:27:07;99522.25;;;24.90;13.15
77047;BME280;65977;56.380;44.022;2023-03-13T05:29:34;99528.50;;;25.12;12.67
77047;BME280;65977;56.380;44.022;2023-03-13T05:32:01;99538.38;;;25.23;12.46
77047;BME280;65977;56.380;44.022;2023-03-13T05:34:28;99540.91;;;25.30;12.25
77047;BME280;65977;56.380;44.022;2023-03-13T05:36:55;99544.97;;;25.49;11.83
77047;BME280;65977;56.380;44.022;2023-03-13T05:39:22;99544.91;;;25.70;11.85
77047;BME280;65977;56.380;44.022;2023-03-13T05:41:49;99556.94;;;25.80;12.10
77047;BME280;65977;56.380;44.022;2023-03-13T05:44:16;99556.63;;;25.76;11.77
77047;BME280;65977;56.380;44.022;2023-03-13T05:46:43;99554.75;;;24.95;12.47
77047;BME280;65977;56.380;44.022;2023-03-13T05:49:10;99564.31;;;25.02;12.02
77047;BME280;65977;56.380;44.022;2023-03-13T05:51:38;99555.06;;;25.37;12.06
77047;BME280;65977;56.380;44.022;2023-03-13T05:54:04;99566.47;;;25.60;11.71
77047;BME280;65977;56.380;44.022;2023-03-13T05:56:32;99568.72;;;26.17;11.98
77047;BME280;65977;56.380;44.022;2023-03-13T05:58:59;99579.78;;;26.42;10.90
77047;BME280;65977;56.380;44.022;2023-03-13T06:01:26;99582.88;;;26.24;10.81
77047;BME280;65977;56.380;44.022;2023-03-13T06:03:53;99577.66;;;26.44;11.15
77047;BME280;65977;56.380;44.022;2023-03-13T06:06:20;99595.88;;;25.52;11.91
77047;BME280;65977;56.380;44.022;2023-03-13T06:08:47;99601.63;;;25.60;11.22
77047;BME280;65977;56.380;44.022;2023-03-13T06:11:14;99602.03;;;25.91;11.53
77047;BME280;65977;56.380;44.022;2023-03-13T06:13:41;99610.69;;;26.41;11.01
77047;BME280;65977;56.380;44.022;2023-03-13T06:16:08;99611.22;;;26.75;10.90
77047;BME280;65977;56.380;44.022;2023-03-13T06:18:36;99605.44;;;27.35;10.43
77047;BME280;65977;56.380;44.022;2023-03-13T06:21:03;99608.84;;;25.33;11.39
77047;BME280;65977;56.380;44.022;2023-03-13T06:23:30;99627.34;;;23.22;12.80
77047;BME280;65977;56.380;44.022;2023-03-13T06:25:59;99624.63;;;23.34;12.48
77047;BME280;65977;56.380;44.022;2023-03-13T06:28:26;99625.25;;;22.48;12.73
77047;BME280;65977;56.380;44.022;2023-03-13T06:30:53;99636.94;;;22.12;12.65
77047;BME280;65977;56.380;44.022;2023-03-13T06:33:21;99635.06;;;23.30;12.20
77047;BME280;65977;56.380;44.022;2023-03-13T06:35:48;99637.66;;;23.48;12.22
77047;BME280;65977;56.380;44.022;2023-03-13T06:38:26;99634.03;;;22.43;12.61
77047;BME280;65977;56.380;44.022;2023-03-13T06:40:53;99645.53;;;20.62;13.88
77047;BME280;65977;56.380;44.022;2023-03-13T06:43:21;99660.59;;;18.58;15.09
77047;BME280;65977;56.380;44.022;2023-03-13T06:45:48;99659.91;;;16.80;16.73
77047;BME280;65977;56.380;44.022;2023-03-13T06:48:15;99666.75;;;15.16;17.76
77047;BME280;65977;56.380;44.022;2023-03-13T06:50:43;99671.50;;;13.62;19.37
77047;BME280;65977;56.380;44.022;2023-03-13T06:53:15;99682.06;;;12.35;20.71
77047;BME280;65977;56.380;44.022;2023-03-13T06:55:43;99676.91;;;11.33;21.86
77047;BME280;65977;56.380;44.022;2023-03-13T06:58:10;99695.91;;;10.42;22.80
77047;BME280;65977;56.380;44.022;2023-03-13T07:00:56;99693.13;;;9.44;23.81
77047;BME280;65977;56.380;44.022;2023-03-13T07:03:23;99703.63;;;10.08;23.50
77047;BME280;65977;56.380;44.022;2023-03-13T07:05:57;99696.66;;;12.47;21.97
77047;BME280;65977;56.380;44.022;2023-03-13T07:08:25;99706.22;;;16.01;18.76
77047;BME280;65977;56.380;44.022;2023-03-13T07:10:56;99699.16;;;17.14;17.44
77047;BME280;65977;56.380;44.022;2023-03-13T07:13:23;99708.00;;;16.65;17.71
77047;BME280;65977;56.380;44.022;2023-03-13T07:15:50;99718.34;;;16.03;17.93
77047;BME280;65977;56.380;44.022;2023-03-13T07:18:17;99724.38;;;15.09;18.56
77047;BME280;65977;56.380;44.022;2023-03-13T07:20:44;99734.28;;;13.86;19.38
77047;BME280;65977;56.380;44.022;2023-03-13T07:23:17;99723.00;;;12.73;20.58
77047;BME280;65977;56.380;44.022;2023-03-13T07:25:54;99743.25;;;13.14;20.46
77047;BME280;65977;56.380;44.022;2023-03-13T07:28:22;99745.13;;;15.29;18.83
77047;BME280;65977;56.380;44.022;2023-03-13T07:30:49;99743.53;;;17.70;17.17
77047;BME280;65977;56.380;44.022;2023-03-13T07:33:17;99738.66;;;20.24;15.21
77047;BME280;65977;56.380;44.022;2023-03-13T07:35:51;99745.31;;;21.65;14.07
77047;BME280;65977;56.380;44.022;2023-03-13T07:38:18;99751.50;;;21.90;13.93
77047;BME280;65977;56.380;44.022;2023-03-13T07:40:53;99750.34;;;21.12;13.25
77047;BME280;65977;56.380;44.022;2023-03-13T07:43:21;99755.22;;;21.46;13.58
77047;BME280;65977;56.380;44.022;2023-03-13T07:45:53;99751.16;;;21.80;13.62
77047;BME280;65977;56.380;44.022;2023-03-13T07:48:22;99737.28;;;23.32;12.95
77047;BME280;65977;56.380;44.022;2023-03-13T07:50:50;99765.94;;;23.67;12.40
77047;BME280;65977;56.380;44.022;2023-03-13T07:53:18;99772.22;;;24.99;11.09
77047;BME280;65977;56.380;44.022;2023-03-13T07:56:09;99764.31;;;26.41;10.63
77047;BME280;65977;56.380;44.022;2023-03-13T07:58:38;99776.81;;;27.90;9.98
77047;BME280;65977;56.380;44.022;2023-03-13T08:01:17;99789.91;;;27.98;8.72
77047;BME280;65977;56.380;44.022;2023-03-13T08:03:45;99782.94;;;27.71;8.87
77047;BME280;65977;56.380;44.022;2023-03-13T08:06:21;99790.00;;;27.72;9.50
77047;BME280;65977;56.380;44.022;2023-03-13T08:08:52;99791.88;;;26.54;9.91
77047;BME280;65977;56.380;44.022;2023-03-13T08:11:24;99786.50;;;25.99;10.37
77047;BME280;65977;56.380;44.022;2023-03-13T08:13:52;99793.97;;;25.37;10.31
77047;BME280;65977;56.380;44.022;2023-03-13T08:16:24;99808.75;;;23.75;11.07
77047;BME280;65977;56.380;44.022;2023-03-13T08:18:54;99814.94;;;21.97;12.05
77047;BME280;65977;56.380;44.022;2023-03-13T08:21:24;99825.69;;;20.92;12.75
77047;BME280;65977;56.380;44.022;2023-03-13T08:23:54;99823.13;;;20.66;13.19
77047;BME280;65977;56.380;44.022;2023-03-13T08:26:24;99823.16;;;21.35;12.70
77047;BME280;65977;56.380;44.022;2023-03-13T08:28:53;99833.44;;;21.94;12.40
77047;BME280;65977;56.380;44.022;2023-03-13T08:31:26;99833.69;;;20.99;13.01
77047;BME280;65977;56.380;44.022;2023-03-13T08:33:56;99840.47;;;19.99;13.69
77047;BME280;65977;56.380;44.022;2023-03-13T08:36:27;99844.63;;;20.66;13.55
77047;BME280;65977;56.380;44.022;2023-03-13T08:38:56;99840.63;;;22.18;12.65
77047;BME280;65977;56.380;44.022;2023-03-13T08:41:26;99846.53;;;21.84;12.42
77047;BME280;65977;56.380;44.022;2023-03-13T08:43:55;99846.06;;;20.62;13.22
77047;BME280;65977;56.380;44.022;2023-03-13T08:46:23;99863.75;;;19.27;13.70
77047;BME280;65977;56.380;44.022;2023-03-13T08:48:52;99861.53;;;18.76;14.53
77047;BME280;65977;56.380;44.022;2023-03-13T08:51:22;99868.97;;;19.61;13.97
77047;BME280;65977;56.380;44.022;2023-03-13T08:53:50;99874.28;;;20.33;13.60
77047;BME280;65977;56.380;44.022;2023-03-13T08:56:20;99872.84;;;20.24;13.82
77047;BME280;65977;56.380;44.022;2023-03-13T08:58:57;99874.84;;;19.17;14.12
77047;BME280;65977;56.380;44.022;2023-03-13T09:01:27;99891.50;;;17.90;14.96
77047;BME280;65977;56.380;44.022;2023-03-13T09:03:55;99893.47;;;16.61;15.71
77047;BME280;65977;56.380;44.022;2023-03-13T09:06:23;99884.94;;;15.47;16.82
77047;BME280;65977;56.380;44.022;2023-03-13T09:08:50;99889.78;;;14.60;17.50
77047;BME280;65977;56.380;44.022;2023-03-13T09:11:19;99900.28;;;13.90;18.25
77047;BME280;65977;56.380;44.022;2023-03-13T09:13:48;99908.38;;;13.08;19.25
77047;BME280;65977;56.380;44.022;2023-03-13T09:16:24;99905.03;;;13.06;19.57
77047;BME280;65977;56.380;44.022;2023-03-13T09:18:51;99909.00;;;13.02;19.52
77047;BME280;65977;56.380;44.022;2023-03-13T09:21:21;99909.09;;;13.90;19.00
77047;BME280;65977;56.380;44.022;2023-03-13T09:23:49;99907.31;;;15.98;17.69
77047;BME280;65977;56.380;44.022;2023-03-13T09:26:18;99909.69;;;18.63;15.79
77047;BME280;65977;56.380;44.022;2023-03-13T09:28:49;99911.09;;;21.28;14.31
77047;BME280;65977;56.380;44.022;2023-03-13T09:31:19;99898.06;;;22.85;12.48
77047;BME280;65977;56.380;44.022;2023-03-13T09:33:47;99908.00;;;21.80;12.91
77047;BME280;65977;56.380;44.022;2023-03-13T09:36:16;99922.78;;;20.12;13.79
77047;BME280;65977;56.380;44.022;2023-03-13T09:38:47;99918.31;;;18.31;15.02
77047;BME280;65977;56.380;44.022;2023-03-13T09:49:26;99915.81;;;23.22;11.93
77047;BME280;65977;56.380;44.022;2023-03-13T09:52:13;99898.09;;;25.23;10.65
77047;BME280;65977;56.380;44.022;2023-03-13T09:54:56;99906.47;;;26.93;9.75
77047;BME280;65977;56.380;44.022;2023-03-13T09:57:41;99920.00;;;28.27;8.85
77047;BME280;65977;56.380;44.022;2023-03-13T10:00:23;99936.25;;;28.63;8.78
77047;BME280;65977;56.380;44.022;2023-03-13T10:03:21;99938.09;;;29.10;8.56
77047;BME280;65977;56.380;44.022;2023-03-13T10:05:52;99930.63;;;29.77;8.26
77047;BME280;65977;56.380;44.022;2023-03-13T10:08:22;99931.22;;;29.89;8.19
77047;BME280;65977;56.380;44.022;2023-03-13T10:10:58;99941.28;;;30.19;7.99
77047;BME280;65977;56.380;44.022;2023-03-13T10:14:11;99937.50;;;28.04;8.22
77047;BME280;65977;56.380;44.022;2023-03-13T10:19:34;99951.50;;;24.88;10.38
77047;BME280;65977;56.380;44.022;2023-03-13T10:22:14;99953.44;;;22.99;11.52
77047;BME280;65977;56.380;44.022;2023-03-13T10:24:57;99953.69;;;20.60;12.64
77047;BME280;65977;56.380;44.022;2023-03-13T10:27:25;99958.81;;;18.49;13.89
77047;BME280;65977;56.380;44.022;2023-03-13T10:29:52;99956.41;;;16.70;15.20
77047;BME280;65977;56.380;44.022;2023-03-13T10:32:19;99944.91;;;15.12;16.40
77047;BME280;65977;56.380;44.022;2023-03-13T10:34:58;99974.66;;;13.90;17.94
77047;BME280;65977;56.380;44.022;2023-03-13T10:37:40;99972.28;;;12.97;18.44
77047;BME280;65977;56.380;44.022;2023-03-13T10:40:19;99982.31;;;12.43;19.39
77047;BME280;65977;56.380;44.022;2023-03-13T10:42:50;99985.41;;;12.05;19.70
77047;BME280;65977;56.380;44.022;2023-03-13T10:45:21;99989.59;;;11.72;20.08
77047;BME280;65977;56.380;44.022;2023-03-13T10:48:02;99987.66;;;12.18;20.12
77047;BME280;65977;56.380;44.022;2023-03-13T10:50:33;99984.72;;;12.03;19.63
77047;BME280;65977;56.380;44.022;2023-03-13T10:55:43;99982.81;;;12.39;19.25
77047;BME280;65977;56.380;44.022;2023-03-13T10:58:18;99976.09;;;14.88;17.62
77047;BME280;65977;56.380;44.022;2023-03-13T11:00:46;99979.38;;;17.36;15.47
77047;BME280;65977;56.380;44.022;2023-03-13T11:03:22;99985.69;;;18.69;14.39
77047;BME280;65977;56.380;44.022;2023-03-13T11:05:59;99998.31;;;20.48;13.56
77047;BME280;65977;56.380;44.022;2023-03-13T11:08:32;99989.59;;;22.06;12.68
77047;BME280;65977;56.380;44.022;2023-03-13T11:11:04;99983.28;;;23.52;11.44
77047;BME280;65977;56.380;44.022;2023-03-13T11:13:40;99995.22;;;24.85;10.66
77047;BME280;65977;56.380;44.022;2023-03-13T11:16:27;99993.06;;;25.95;9.75
77047;BME280;65977;56.380;44.022;2023-03-13T11:27:49;100003.97;;;27.43;8.86
77047;BME280;65977;56.380;44.022;2023-03-13T11:33:04;100012.06;;;27.65;7.99
77047;BME280;65977;56.380;44.022;2023-03-13T11:36:41;100021.16;;;27.32;7.89
77047;BME280;65977;56.380;44.022;2023-03-13T11:39:01;100017.63;;;27.10;7.63
77047;BME280;65977;56.380;44.022;2023-03-13T11:50:14;100019.44;;;26.66;8.46
77047;BME280;65977;56.380;44.022;2023-03-13T11:52:54;100044.69;;;24.50;9.29
77047;BME280;65977;56.380;44.022;2023-03-13T11:58:08;100059.00;;;20.82;11.27
77047;BME280;65977;56.380;44.022;2023-03-13T12:00:57;100050.47;;;18.85;12.28
77047;BME280;65977;56.380;44.022;2023-03-13T12:03:57;100052.25;;;17.16;13.55
77047;BME280;65977;56.380;44.022;2023-03-13T12:06:44;100047.50;;;17.61;13.68
77047;BME280;65977;56.380;44.022;2023-03-13T12:09:33;100042.69;;;18.63;13.26
77047;BME280;65977;56.380;44.022;2023-03-13T12:14:53;100052.81;;;20.62;12.13
77047;BME280;65977;56.380;44.022;2023-03-13T12:17:32;100053.66;;;20.49;11.91
77047;BME280;65977;56.380;44.022;2023-03-13T12:20:11;100066.38;;;19.82;11.80
77047;BME280;65977;56.380;44.022;2023-03-13T12:23:20;100061.25;;;18.43;12.59
77047;BME280;65977;56.380;44.022;2023-03-13T12:25:55;100060.09;;;17.02;13.45
77047;BME280;65977;56.380;44.022;2023-03-13T12:28:32;100076.63;;;15.86;14.58
77047;BME280;65977;56.380;44.022;2023-03-13T12:31:21;100080.78;;;15.11;15.62
77047;BME280;65977;56.380;44.022;2023-03-13T12:36:30;100077.81;;;13.45;16.79
77047;BME280;65977;56.380;44.022;2023-03-13T12:44:43;100091.44;;;10.87;19.22
77047;BME280;65977;56.380;44.022;2023-03-13T12:53:09;100102.97;;;9.42;21.16
77047;BME280;65977;56.380;44.022;2023-03-13T12:56:04;100108.53;;;8.99;21.55
77047;BME280;65977;56.380;44.022;2023-03-13T12:58:49;100102.16;;;8.71;22.23
77047;BME280;65977;56.380;44.022;2023-03-13T13:01:24;100113.84;;;8.58;22.33
77047;BME280;65977;56.380;44.022;2023-03-13T13:03:57;100108.63;;;8.47;22.87
77047;BME280;65977;56.380;44.022;2023-03-13T13:06:49;100118.66;;;8.32;23.05
77047;BME280;65977;56.380;44.022;2023-03-13T13:09:26;100128.16;;;8.12;23.72
77047;BME280;65977;56.380;44.022;2023-03-13T13:11:55;100110.78;;;7.89;23.29
77047;BME280;65977;56.380;44.022;2023-03-13T13:16:50;100115.59;;;7.84;23.64
77047;BME280;65977;56.380;44.022;2023-03-13T13:24:58;100121.41;;;7.45;24.49
77047;BME280;65977;56.380;44.022;2023-03-13T13:29:59;100129.09;;;6.92;24.90
77047;BME280;65977;56.380;44.022;2023-03-13T13:32:30;100128.94;;;6.61;25.12
77047;BME280;65977;56.380;44.022;2023-03-13T13:37:51;100128.50;;;5.97;26.06
77047;BME280;65977;56.380;44.022;2023-03-13T13:40:26;100140.94;;;5.70;26.42
77047;BME280;65977;56.380;44.022;2023-03-13T13:42:55;100138.84;;;5.51;27.12
77047;BME280;65977;56.380;44.022;2023-03-13T13:45:35;100145.69;;;5.29;27.28
77047;BME280;65977;56.380;44.022;2023-03-13T13:48:33;100167.19;;;5.08;27.98
77047;BME280;65977;56.380;44.022;2023-03-13T13:53:46;100136.22;;;4.77;28.00
77047;BME280;65977;56.380;44.022;2023-03-13T13:56:33;100136.94;;;4.67;28.82
77047;BME280;65977;56.380;44.022;2023-03-13T13:59:24;100143.44;;;4.61;28.46
77047;BME280;65977;56.380;44.022;2023-03-13T14:07:14;100165.75;;;4.27;28.96
77047;BME280;65977;56.380;44.022;2023-03-13T14:12:38;100165.16;;;3.97;29.64
77047;BME280;65977;56.380;44.022;2023-03-13T14:17:40;100163.09;;;3.75;29.98
77047;BME280;65977;56.380;44.022;2023-03-13T14:20:36;100169.00;;;3.65;29.80
77047;BME280;65977;56.380;44.022;2023-03-13T14:23:07;100172.09;;;3.57;30.10
77047;BME280;65977;56.380;44.022;2023-03-13T14:25:46;100176.94;;;3.49;30.45
77047;BME280;65977;56.380;44.022;2023-03-13T14:28:22;100178.09;;;3.45;30.50
77047;BME280;65977;56.380;44.022;2023-03-13T14:30:51;100178.28;;;3.42;31.17
77047;BME280;65977;56.380;44.022;2023-03-13T14:33:19;100178.09;;;3.45;31.26
77047;BME280;65977;56.380;44.022;2023-03-13T14:35:47;100182.91;;;3.51;31.85
77047;BME280;65977;56.380;44.022;2023-03-13T14:38:20;100185.88;;;3.59;31.89
77047;BME280;65977;56.380;44.022;2023-03-13T14:40:49;100182.34;;;3.60;31.98
77047;BME280;65977;56.380;44.022;2023-03-13T14:43:43;100201.47;;;3.61;32.65
77047;BME280;65977;56.380;44.022;2023-03-13T14:48:44;100192.59;;;3.63;32.42
77047;BME280;65977;56.380;44.022;2023-03-13T14:51:20;100188.69;;;3.56;33.14
77047;BME280;65977;56.380;44.022;2023-03-13T14:53:59;100173.72;;;3.46;32.30